createdAt,value
2023-03-26T00:01:29.692Z,8.40
2023-03-26T00:03:58.027Z,8.39
2023-03-26T00:06:29.347Z,8.39
2023-03-26T00:08:58.433Z,8.42
2023-03-26T00:11:28.860Z,8.42
2023-03-26T00:13:57.698Z,8.40
2023-03-26T00:16:29.624Z,8.41
2023-03-26T00:18:58.235Z,8.49
2023-03-26T00:21:28.718Z,8.38
2023-03-26T00:24:00.333Z,8.40
2023-03-26T00:26:31.010Z,8.38
2023-03-26T00:29:00.108Z,8.40
2023-03-26T00:31:27.680Z,8.34
2023-03-26T00:33:55.630Z,8.35
2023-03-26T00:36:26.652Z,8.41
2023-03-26T00:38:54.849Z,8.34
2023-03-26T00:41:26.130Z,8.37
2023-03-26T00:43:58.463Z,8.42
2023-03-26T00:46:28.521Z,8.38
2023-03-26T00:48:59.061Z,8.38
2023-03-26T00:51:28.363Z,8.34
2023-03-26T00:53:56.730Z,8.34
2023-03-26T00:56:24.062Z,8.42
2023-03-26T00:58:51.308Z,8.34
2023-03-26T01:01:29.121Z,8.36
2023-03-26T01:04:18.509Z,8.37
2023-03-26T01:06:46.773Z,8.44
2023-03-26T01:09:18.886Z,8.43
2023-03-26T01:11:47.814Z,8.41
2023-03-26T01:14:19.702Z,8.46
2023-03-26T01:17:02.296Z,8.41
2023-03-26T01:19:49.969Z,8.41
2023-03-26T01:22:22.251Z,8.45
2023-03-26T01:24:53.886Z,8.40
2023-03-26T01:27:38.954Z,8.41
2023-03-26T01:30:17.474Z,8.37
2023-03-26T01:32:57.770Z,8.36
2023-03-26T01:35:36.466Z,8.30
2023-03-26T01:38:27.788Z,8.34
2023-03-26T01:41:09.599Z,8.37
2023-03-26T01:43:56.357Z,8.33
2023-03-26T01:46:25.596Z,8.38
2023-03-26T01:48:52.828Z,8.38
2023-03-26T01:51:33.998Z,8.38
2023-03-26T01:54:04.274Z,8.43
2023-03-26T01:56:54.638Z,8.38
2023-03-26T01:59:43.824Z,8.38
2023-03-26T02:02:26.329Z,8.32
2023-03-26T02:05:05.463Z,8.37
2023-03-26T02:07:50.901Z,8.36
2023-03-26T02:10:29.305Z,8.40
2023-03-26T02:12:59.550Z,8.40
2023-03-26T02:15:26.955Z,8.40
2023-03-26T02:17:54.371Z,8.38
2023-03-26T02:20:22.146Z,8.44
2023-03-26T02:22:49.301Z,8.33
2023-03-26T02:25:20.337Z,8.29
2023-03-26T02:27:51.962Z,8.34
2023-03-26T02:30:29.547Z,8.20
2023-03-26T02:32:59.103Z,8.25
2023-03-26T02:35:26.720Z,8.26
2023-03-26T02:37:54.033Z,8.20
2023-03-26T02:40:22.391Z,8.15
2023-03-26T02:42:49.774Z,8.25
2023-03-26T02:45:17.142Z,8.13
2023-03-26T02:47:46.090Z,8.09
2023-03-26T02:50:13.340Z,8.03
2023-03-26T02:52:40.471Z,8.04
2023-03-26T02:55:08.210Z,8.08
2023-03-26T02:57:35.577Z,8.07
2023-03-26T03:00:15.184Z,8.05
2023-03-26T03:02:44.304Z,7.98
2023-03-26T03:05:11.692Z,7.94
2023-03-26T03:07:38.904Z,7.89
2023-03-26T03:10:08.615Z,7.97
2023-03-26T03:12:36.734Z,7.92
2023-03-26T03:15:04.178Z,7.92
2023-03-26T03:17:31.400Z,7.91
2023-03-26T03:19:58.918Z,8.03
2023-03-26T03:22:26.169Z,7.91
2023-03-26T03:24:53.311Z,7.81
2023-03-26T03:27:22.212Z,7.81
2023-03-26T03:29:49.386Z,7.68
2023-03-26T03:32:16.511Z,7.72
2023-03-26T03:34:43.649Z,7.64
2023-03-26T03:37:10.925Z,7.69
2023-03-26T03:39:38.066Z,7.57
2023-03-26T03:42:05.218Z,7.60
2023-03-26T03:44:32.342Z,7.54
2023-03-26T03:46:59.516Z,7.54
2023-03-26T03:49:26.678Z,7.47
2023-03-26T03:51:53.836Z,7.53
2023-03-26T03:54:20.982Z,7.36
2023-03-26T03:56:49.051Z,7.50
2023-03-26T03:59:16.254Z,7.22
2023-03-26T04:01:46.620Z,7.25
2023-03-26T04:04:13.887Z,7.21
2023-03-26T04:06:41.106Z,7.21
2023-03-26T04:09:10.219Z,7.24
2023-03-26T04:11:37.386Z,7.34
2023-03-26T04:14:04.545Z,7.39
2023-03-26T04:16:32.439Z,7.38
2023-03-26T04:19:02.230Z,7.37
2023-03-26T04:21:30.492Z,7.41
2023-03-26T04:23:57.669Z,7.42
2023-03-26T04:26:25.035Z,7.53
2023-03-26T04:28:59.977Z,7.65
2023-03-26T04:31:31.821Z,7.71
2023-03-26T04:34:20.035Z,7.73
2023-03-26T04:36:47.228Z,7.60
2023-03-26T04:39:14.445Z,7.63
2023-03-26T04:41:41.671Z,7.65
2023-03-26T04:44:08.788Z,7.55
2023-03-26T04:46:35.992Z,7.70
2023-03-26T04:49:03.246Z,7.68
2023-03-26T04:51:38.763Z,7.59
2023-03-26T04:54:07.130Z,7.64
2023-03-26T04:56:58.034Z,7.60
2023-03-26T04:59:35.614Z,7.66
2023-03-26T05:02:06.142Z,7.77
2023-03-26T05:04:36.648Z,7.70
2023-03-26T05:07:03.983Z,7.71
2023-03-26T05:09:31.279Z,7.65
2023-03-26T05:11:58.407Z,7.82
2023-03-26T05:14:25.539Z,7.88
2023-03-26T05:16:53.328Z,7.78
2023-03-26T05:19:20.940Z,7.76
2023-03-26T05:21:48.292Z,7.84
2023-03-26T05:24:15.695Z,7.74
2023-03-26T05:26:42.966Z,7.77
2023-03-26T05:29:10.169Z,7.77
2023-03-26T05:31:37.825Z,7.76
2023-03-26T05:34:05.028Z,7.72
2023-03-26T05:36:32.213Z,7.70
2023-03-26T05:38:59.379Z,7.73
2023-03-26T05:41:26.799Z,7.78
2023-03-26T05:43:53.962Z,7.76
2023-03-26T05:46:23.076Z,7.79
2023-03-26T05:48:51.938Z,7.76
2023-03-26T05:51:19.178Z,7.86
2023-03-26T05:53:46.340Z,7.76
2023-03-26T05:56:13.551Z,7.80
2023-03-26T05:58:42.045Z,7.80
2023-03-26T06:01:16.534Z,7.79
2023-03-26T06:03:45.645Z,7.73
2023-03-26T06:06:16.849Z,7.77
2023-03-26T06:09:01.560Z,7.80
2023-03-26T06:11:32.969Z,7.80
2023-03-26T06:14:00.957Z,7.80
2023-03-26T06:16:28.447Z,7.87
2023-03-26T06:18:57.696Z,8.06
2023-03-26T06:21:26.547Z,8.04
2023-03-26T06:23:54.369Z,8.40
2023-03-26T06:26:21.989Z,8.35
2023-03-26T06:28:49.475Z,8.31
2023-03-26T06:33:44.454Z,8.29
2023-03-26T06:36:11.725Z,8.28
2023-03-26T06:38:38.989Z,8.34
2023-03-26T06:41:06.713Z,8.36
2023-03-26T06:43:34.072Z,8.39
2023-03-26T06:46:02.586Z,8.40
2023-03-26T06:48:29.740Z,8.37
2023-03-26T06:50:57.108Z,8.31
2023-03-26T06:53:24.279Z,8.38
2023-03-26T06:55:54.391Z,8.38
2023-03-26T06:58:22.312Z,8.43
2023-03-26T07:00:54.244Z,8.43
2023-03-26T07:03:22.282Z,8.44
2023-03-26T07:05:49.494Z,8.49
2023-03-26T07:08:16.675Z,8.46
2023-03-26T07:10:44.281Z,8.49
2023-03-26T07:13:11.436Z,8.56
2023-03-26T07:15:38.658Z,8.54
2023-03-26T07:18:06.417Z,8.60
2023-03-26T07:20:33.891Z,8.53
2023-03-26T07:23:01.498Z,8.63
2023-03-26T07:25:29.125Z,8.64
2023-03-26T07:28:20.764Z,8.63
2023-03-26T07:31:20.438Z,8.78
2023-03-26T07:34:02.410Z,8.87
2023-03-26T07:36:45.336Z,9.12
2023-03-26T07:39:57.744Z,9.02
2023-03-26T07:42:44.199Z,9.17
2023-03-26T07:45:46.803Z,9.56
2023-03-26T07:48:20.001Z,9.20
2023-03-26T07:50:48.587Z,9.14
2023-03-26T07:53:16.010Z,9.06
2023-03-26T07:56:36.922Z,9.00
2023-03-26T07:59:22.307Z,9.04
2023-03-26T08:02:21.513Z,9.07
2023-03-26T08:05:46.384Z,9.18
2023-03-26T08:08:25.809Z,9.34
2023-03-26T08:11:07.185Z,9.22
2023-03-26T08:13:56.960Z,9.25
2023-03-26T08:16:36.768Z,9.11
2023-03-26T08:19:38.659Z,9.13
2023-03-26T08:22:20.702Z,9.40
2023-03-26T08:25:19.681Z,9.46
2023-03-26T08:28:10.620Z,9.58
2023-03-26T08:30:37.874Z,9.67
2023-03-26T08:33:17.914Z,9.70
2023-03-26T08:35:46.621Z,9.75
2023-03-26T08:38:17.687Z,9.78
2023-03-26T08:41:14.601Z,9.69
2023-03-26T08:44:36.280Z,9.32
2023-03-26T08:47:31.229Z,9.26
2023-03-26T08:50:33.438Z,9.50
2023-03-26T08:53:42.921Z,9.79
2023-03-26T08:56:27.316Z,9.09
2023-03-26T08:59:34.680Z,9.17
2023-03-26T09:02:58.027Z,9.48
2023-03-26T09:06:04.263Z,9.24
2023-03-26T09:08:59.131Z,8.78
2023-03-26T09:12:20.324Z,8.82
2023-03-26T09:15:24.489Z,8.85
2023-03-26T09:18:31.508Z,9.03
2023-03-26T09:21:47.046Z,10.84
2023-03-26T09:24:54.261Z,11.01
2023-03-26T09:28:08.047Z,12.01
2023-03-26T09:31:22.562Z,12.98
2023-03-26T09:34:29.958Z,12.00
2023-03-26T09:37:33.287Z,11.23
2023-03-26T09:40:20.202Z,10.88
2023-03-26T09:43:01.407Z,10.50
2023-03-26T09:45:49.166Z,10.84
2023-03-26T09:48:42.191Z,11.78
2023-03-26T09:51:37.653Z,11.99
2023-03-26T09:54:31.772Z,12.64
2023-03-26T09:57:33.449Z,12.81
2023-03-26T10:00:18.732Z,13.05
2023-03-26T10:03:40.821Z,14.29
2023-03-26T10:07:21.805Z,13.86
2023-03-26T10:10:32.206Z,12.62
2023-03-26T10:13:30.858Z,12.31
2023-03-26T10:16:12.958Z,12.35
2023-03-26T10:19:20.046Z,12.16
2023-03-26T10:22:27.023Z,12.15
2023-03-26T10:25:22.163Z,11.70
2023-03-26T10:28:33.576Z,11.61
2023-03-26T10:31:42.526Z,11.19
2023-03-26T10:34:44.215Z,11.28
2023-03-26T10:37:32.223Z,11.52
2023-03-26T10:40:57.101Z,11.75
2023-03-26T10:44:21.840Z,12.21
2023-03-26T10:47:22.709Z,12.99
2023-03-26T10:50:23.594Z,12.75
2023-03-26T10:53:21.710Z,12.73
2023-03-26T10:56:00.168Z,13.34
2023-03-26T10:58:48.515Z,13.06
2023-03-26T11:01:28.778Z,13.26
2023-03-26T11:04:14.550Z,13.75
2023-03-26T11:07:00.185Z,13.83
2023-03-26T11:09:37.575Z,14.02
2023-03-26T11:12:28.889Z,14.07
2023-03-26T11:15:26.061Z,13.76
2023-03-26T11:18:08.227Z,12.71
2023-03-26T11:20:46.307Z,12.59
2023-03-26T11:23:37.362Z,11.89
2023-03-26T11:26:52.878Z,11.55
2023-03-26T11:29:42.191Z,11.83
2023-03-26T11:32:23.834Z,11.84
2023-03-26T11:35:40.683Z,11.54
2023-03-26T11:38:39.413Z,11.88
2023-03-26T11:41:32.932Z,11.62
2023-03-26T11:44:06.373Z,11.07
2023-03-26T11:46:40.142Z,11.67
2023-03-26T11:49:13.295Z,11.74
2023-03-26T11:51:43.500Z,11.36
2023-03-26T11:54:12.974Z,11.26
2023-03-26T11:57:05.569Z,11.71
2023-03-26T11:59:55.701Z,11.75
2023-03-26T12:02:29.321Z,11.76
2023-03-26T12:05:18.100Z,11.93
2023-03-26T12:07:53.236Z,12.06
2023-03-26T12:10:29.957Z,12.00
2023-03-26T12:13:02.333Z,11.56
2023-03-26T12:15:32.070Z,12.11
2023-03-26T12:18:23.791Z,12.30
2023-03-26T12:21:08.488Z,12.37
2023-03-26T12:23:58.432Z,11.72
2023-03-26T12:26:41.498Z,11.93
2023-03-26T12:29:14.325Z,12.32
2023-03-26T12:31:45.754Z,12.13
2023-03-26T12:34:20.986Z,11.97
2023-03-26T12:36:57.238Z,11.81
2023-03-26T12:40:10.313Z,12.57
2023-03-26T12:44:44.588Z,12.05
2023-03-26T12:45:24.146Z,11.89
2023-03-26T12:48:00.563Z,12.03
2023-03-26T12:51:09.003Z,11.37
2023-03-26T12:54:16.470Z,11.44
2023-03-26T12:57:13.229Z,11.50
2023-03-26T12:59:54.105Z,11.41
2023-03-26T13:02:53.051Z,11.56
2023-03-26T13:05:54.579Z,11.48
2023-03-26T13:09:03.490Z,11.64
2023-03-26T13:12:10.344Z,11.64
2023-03-26T13:15:00.439Z,11.78
2023-03-26T13:17:50.999Z,11.48
2023-03-26T13:20:49.540Z,12.29
2023-03-26T13:24:29.089Z,11.98
2023-03-26T13:27:08.836Z,11.59
2023-03-26T13:29:43.736Z,12.01
2023-03-26T13:33:12.620Z,11.66
2023-03-26T13:36:00.221Z,11.98
2023-03-26T13:38:59.184Z,12.05
2023-03-26T13:41:51.722Z,12.00
2023-03-26T13:44:40.910Z,12.11
2023-03-26T13:47:19.553Z,12.54
2023-03-26T13:49:55.204Z,12.35
2023-03-26T13:52:36.714Z,12.56
2023-03-26T13:55:28.283Z,12.35
2023-03-26T13:58:10.890Z,12.01
2023-03-26T14:01:09.415Z,11.80
2023-03-26T14:04:17.868Z,12.52
2023-03-26T14:06:57.887Z,11.93
2023-03-26T14:09:53.420Z,12.06
2023-03-26T14:12:34.032Z,12.08
2023-03-26T14:15:06.440Z,11.68
2023-03-26T14:18:22.654Z,11.61
2023-03-26T14:21:11.570Z,11.62
2023-03-26T14:24:15.854Z,11.59
2023-03-26T14:27:06.600Z,11.78
2023-03-26T14:29:57.489Z,11.79
2023-03-26T14:32:45.895Z,12.09
2023-03-26T14:35:42.829Z,11.67
2023-03-26T14:38:32.820Z,11.68
2023-03-26T14:41:29.408Z,11.50
2023-03-26T14:44:52.065Z,11.56
2023-03-26T14:47:21.875Z,11.66
2023-03-26T14:50:31.504Z,11.90
2023-03-26T14:53:05.784Z,11.73
2023-03-26T14:55:54.669Z,11.73
2023-03-26T14:59:14.622Z,11.26
2023-03-26T15:02:11.513Z,11.41
2023-03-26T15:05:12.816Z,11.29
2023-03-26T15:08:07.466Z,11.05
2023-03-26T15:10:59.734Z,11.07
2023-03-26T15:14:09.454Z,11.02
2023-03-26T15:17:01.664Z,11.12
2023-03-26T15:20:00.033Z,11.36
2023-03-26T15:22:45.197Z,11.40
2023-03-26T15:26:07.708Z,10.96
2023-03-26T15:28:47.048Z,11.36
2023-03-26T15:31:23.208Z,11.18
2023-03-26T15:34:27.496Z,11.00
2023-03-26T15:37:10.696Z,11.34
2023-03-26T15:40:07.366Z,11.20
2023-03-26T15:43:12.384Z,11.09
2023-03-26T15:45:56.216Z,11.30
2023-03-26T15:48:57.841Z,10.87
2023-03-26T15:52:21.445Z,11.11
2023-03-26T15:55:27.664Z,10.81
2023-03-26T15:58:24.726Z,10.97
2023-03-26T16:01:09.515Z,10.86
2023-03-26T16:03:58.539Z,10.89
2023-03-26T16:06:48.374Z,10.84
2023-03-26T16:09:45.737Z,10.86
2023-03-26T16:12:12.777Z,10.74
2023-03-26T16:14:47.215Z,10.66
2023-03-26T16:17:23.509Z,10.52
2023-03-26T16:20:09.329Z,10.73
2023-03-26T16:23:06.915Z,10.54
2023-03-26T16:25:54.069Z,10.51
2023-03-26T16:28:36.754Z,10.70
2023-03-26T16:31:35.392Z,10.51
2023-03-26T16:34:03.030Z,10.52
2023-03-26T16:36:37.085Z,10.42
2023-03-26T16:39:04.810Z,10.53
2023-03-26T16:41:56.215Z,10.56
2023-03-26T16:44:42.500Z,10.31
2023-03-26T16:47:38.656Z,10.43
2023-03-26T16:50:43.951Z,10.11
2023-03-26T16:54:17.438Z,9.98
2023-03-26T16:57:19.725Z,10.12
2023-03-26T17:00:30.371Z,10.09
2023-03-26T17:03:27.088Z,10.02
2023-03-26T17:05:54.234Z,10.13
2023-03-26T17:08:53.323Z,9.84
2023-03-26T17:11:54.867Z,9.93
2023-03-26T17:15:30.387Z,10.02
2023-03-26T17:18:28.842Z,10.05
2023-03-26T17:21:24.176Z,10.05
2023-03-26T17:24:02.082Z,9.81
2023-03-26T17:26:51.051Z,9.95
2023-03-26T17:29:28.653Z,9.99
2023-03-26T17:32:12.370Z,9.84
2023-03-26T17:34:40.290Z,9.95
2023-03-26T17:37:18.803Z,10.06
2023-03-26T17:39:48.777Z,9.95
2023-03-26T17:42:15.991Z,9.80
2023-03-26T17:44:49.344Z,9.60
2023-03-26T17:47:32.746Z,9.70
2023-03-26T17:50:10.597Z,9.75
2023-03-26T17:52:56.477Z,9.77
2023-03-26T17:55:34.801Z,9.64
2023-03-26T17:58:20.374Z,9.81
2023-03-26T18:00:57.029Z,9.76
2023-03-26T18:03:34.425Z,9.50
2023-03-26T18:06:47.156Z,9.72
2023-03-26T18:09:37.665Z,9.61
2023-03-26T18:12:42.383Z,9.43
2023-03-26T18:15:21.652Z,9.53
2023-03-26T18:17:48.962Z,9.57
2023-03-26T18:20:28.980Z,9.37
2023-03-26T18:22:57.394Z,9.26
2023-03-26T18:25:32.105Z,9.33
2023-03-26T18:28:02.071Z,9.30
2023-03-26T18:30:29.744Z,9.38
2023-03-26T18:33:13.260Z,9.20
2023-03-26T18:35:46.168Z,9.29
2023-03-26T18:38:36.163Z,9.40
2023-03-26T18:41:15.301Z,9.18
2023-03-26T18:43:44.750Z,8.83
2023-03-26T18:46:15.698Z,9.12
2023-03-26T18:48:44.106Z,8.88
2023-03-26T18:51:12.150Z,8.81
2023-03-26T18:54:02.897Z,8.72
2023-03-26T18:56:39.413Z,8.76
2023-03-26T18:59:29.009Z,8.61
2023-03-26T19:01:58.964Z,8.58
2023-03-26T19:04:30.807Z,8.46
2023-03-26T19:06:58.675Z,8.36
2023-03-26T19:09:32.206Z,8.69
2023-03-26T19:12:08.837Z,8.52
2023-03-26T19:14:54.740Z,8.20
2023-03-26T19:17:29.516Z,8.34
2023-03-26T19:19:57.592Z,8.25
2023-03-26T19:22:26.445Z,8.00
2023-03-26T19:25:00.799Z,8.06
2023-03-26T19:27:28.876Z,8.02
2023-03-26T19:29:56.116Z,8.17
2023-03-26T19:32:32.778Z,8.17
2023-03-26T19:35:02.224Z,7.97
2023-03-26T19:37:31.613Z,8.16
2023-03-26T19:40:29.770Z,7.96
2023-03-26T19:43:02.687Z,7.65
2023-03-26T19:45:34.799Z,7.72
2023-03-26T19:48:14.220Z,7.78
2023-03-26T19:50:54.653Z,7.82
2023-03-26T19:53:32.644Z,7.81
2023-03-26T19:56:13.057Z,7.74
2023-03-26T19:58:42.664Z,7.56
2023-03-26T20:01:18.986Z,7.41
2023-03-26T20:03:51.510Z,7.56
2023-03-26T20:06:30.758Z,7.28
2023-03-26T20:09:05.988Z,7.43
2023-03-26T20:11:38.403Z,7.36
2023-03-26T20:14:25.678Z,7.13
2023-03-26T20:16:53.000Z,7.02
2023-03-26T20:19:20.574Z,6.93
2023-03-26T20:21:47.744Z,6.79
2023-03-26T20:24:18.243Z,6.77
2023-03-26T20:26:47.012Z,7.05
2023-03-26T20:29:15.363Z,7.03
2023-03-26T20:31:43.933Z,6.67
2023-03-26T20:34:21.052Z,7.01
2023-03-26T20:37:01.385Z,7.15
2023-03-26T20:39:30.453Z,7.18
2023-03-26T20:42:00.434Z,6.98
2023-03-26T20:44:27.973Z,6.60
2023-03-26T20:46:56.506Z,7.06
2023-03-26T20:49:24.945Z,7.05
2023-03-26T20:51:52.645Z,6.93
2023-03-26T20:54:25.878Z,6.97
2023-03-26T20:56:54.439Z,6.84
2023-03-26T20:59:26.548Z,6.94
2023-03-26T21:01:57.174Z,6.69
2023-03-26T21:04:26.325Z,6.65
2023-03-26T21:07:00.251Z,6.78
2023-03-26T21:09:34.895Z,6.92
2023-03-26T21:12:16.826Z,6.84
2023-03-26T21:14:44.619Z,6.53
2023-03-26T21:17:16.604Z,6.57
2023-03-26T21:19:45.212Z,6.77
2023-03-26T21:22:18.149Z,6.78
2023-03-26T21:24:58.949Z,6.70
2023-03-26T21:27:39.136Z,6.50
2023-03-26T21:30:14.398Z,6.85
2023-03-26T21:32:44.889Z,6.60
2023-03-26T21:35:14.747Z,6.83
2023-03-26T21:37:45.507Z,6.80
2023-03-26T21:40:17.914Z,6.79
2023-03-26T21:42:51.460Z,6.55
2023-03-26T21:45:20.993Z,6.66
2023-03-26T21:47:49.461Z,6.74
2023-03-26T21:50:21.736Z,6.73
2023-03-26T21:52:51.250Z,6.48
2023-03-26T21:55:22.201Z,6.90
2023-03-26T21:58:07.294Z,6.76
2023-03-26T22:01:15.967Z,6.74
2023-03-26T22:04:15.507Z,6.70
2023-03-26T22:06:54.264Z,6.72
2023-03-26T22:09:33.739Z,6.64
2023-03-26T22:12:05.300Z,6.57
2023-03-26T22:14:33.755Z,6.72
2023-03-26T22:17:00.922Z,6.69
2023-03-26T22:19:30.152Z,6.92
2023-03-26T22:21:58.327Z,6.63
2023-03-26T22:24:26.012Z,6.89
2023-03-26T22:26:53.194Z,6.73
2023-03-26T22:29:20.841Z,6.34
2023-03-26T22:31:47.990Z,6.41
2023-03-26T22:34:15.325Z,6.57
2023-03-26T22:36:42.525Z,6.40
2023-03-26T22:39:09.680Z,6.29
2023-03-26T22:41:37.111Z,6.67
2023-03-26T22:44:19.138Z,6.57
2023-03-26T22:46:51.018Z,6.27
2023-03-26T22:49:18.321Z,6.09
2023-03-26T22:51:45.735Z,6.43
2023-03-26T22:54:13.148Z,6.42
2023-03-26T22:56:40.520Z,6.29
2023-03-26T22:59:07.708Z,6.09
2023-03-26T23:01:36.132Z,6.10
2023-03-26T23:04:03.805Z,6.24
2023-03-26T23:06:31.645Z,5.62
2023-03-26T23:08:58.946Z,6.02
2023-03-26T23:11:26.643Z,5.94
2023-03-26T23:13:53.894Z,6.02
2023-03-26T23:16:21.706Z,6.12
2023-03-26T23:18:49.004Z,6.10
2023-03-26T23:21:21.965Z,6.10
2023-03-26T23:23:51.603Z,5.97
2023-03-26T23:26:18.964Z,5.95
2023-03-26T23:28:46.108Z,5.82
2023-03-26T23:31:13.946Z,6.25
2023-03-26T23:33:46.170Z,6.10
2023-03-26T23:36:18.145Z,6.09
2023-03-26T23:38:48.356Z,5.78
2023-03-26T23:41:21.298Z,6.29
2023-03-26T23:43:56.457Z,5.98
2023-03-26T23:46:30.814Z,5.57
2023-03-26T23:49:04.473Z,5.71
2023-03-26T23:51:32.766Z,5.78
2023-03-26T23:54:01.418Z,5.88
2023-03-26T23:56:29.912Z,5.72
2023-03-26T23:58:59.087Z,5.82
